sensor_id;sensor_type;location;lat;lon;timestamp;temperature;humidity
23259;DHT22;11798;51.528;7.240;2023-04-24T00:01:25;10.80;99.90
23259;DHT22;11798;51.528;7.240;2023-04-24T00:03:50;10.80;99.90
23259;DHT22;11798;51.528;7.240;2023-04-24T00:06:16;10.80;99.90
23259;DHT22;11798;51.528;7.240;2023-04-24T00:08:42;10.80;99.90
23259;DHT22;11798;51.528;7.240;2023-04-24T00:11:08;10.80;99.90
23259;DHT22;11798;51.528;7.240;2023-04-24T00:13:35;10.80;99.90
23259;DHT22;11798;51.528;7.240;2023-04-24T00:16:00;10.80;99.90
23259;DHT22;11798;51.528;7.240;2023-04-24T00:18:26;10.80;99.90
23259;DHT22;11798;51.528;7.240;2023-04-24T00:20:52;10.70;99.90
23259;DHT22;11798;51.528;7.240;2023-04-24T00:23:17;10.80;99.90
23259;DHT22;11798;51.528;7.240;2023-04-24T00:25:43;10.70;99.90
23259;DHT22;11798;51.528;7.240;2023-04-24T00:28:08;10.70;99.90
23259;DHT22;11798;51.528;7.240;2023-04-24T00:30:34;10.70;99.90
23259;DHT22;11798;51.528;7.240;2023-04-24T00:33:00;10.60;99.90
23259;DHT22;11798;51.528;7.240;2023-04-24T00:35:25;10.60;99.90
23259;DHT22;11798;51.528;7.240;2023-04-24T00:37:51;10.60;99.90
23259;DHT22;11798;51.528;7.240;2023-04-24T00:40:17;10.50;99.90
23259;DHT22;11798;51.528;7.240;2023-04-24T00:42:43;10.50;99.90
23259;DHT22;11798;51.528;7.240;2023-04-24T00:45:09;10.40;99.90
23259;DHT22;11798;51.528;7.240;2023-04-24T00:47:35;10.40;99.90
23259;DHT22;11798;51.528;7.240;2023-04-24T00:50:03;10.40;99.90
23259;DHT22;11798;51.528;7.240;2023-04-24T00:52:29;10.30;99.90
23259;DHT22;11798;51.528;7.240;2023-04-24T00:54:56;10.30;99.90
23259;DHT22;11798;51.528;7.240;2023-04-24T00:57:22;10.30;99.90
23259;DHT22;11798;51.528;7.240;2023-04-24T00:59:49;10.30;99.90
23259;DHT22;11798;51.528;7.240;2023-04-24T01:02:15;10.30;99.90
23259;DHT22;11798;51.528;7.240;2023-04-24T01:04:41;10.20;99.90
23259;DHT22;11798;51.528;7.240;2023-04-24T01:07:07;10.20;99.90
23259;DHT22;11798;51.528;7.240;2023-04-24T01:09:42;10.10;99.90
23259;DHT22;11798;51.528;7.240;2023-04-24T01:12:09;10.10;99.90
23259;DHT22;11798;51.528;7.240;2023-04-24T01:14:35;10.00;99.90
23259;DHT22;11798;51.528;7.240;2023-04-24T01:17:00;10.00;99.90
23259;DHT22;11798;51.528;7.240;2023-04-24T01:19:27;10.00;99.90
23259;DHT22;11798;51.528;7.240;2023-04-24T01:21:53;10.00;99.90
23259;DHT22;11798;51.528;7.240;2023-04-24T01:24:22;9.90;99.90
23259;DHT22;11798;51.528;7.240;2023-04-24T01:26:48;9.90;99.90
23259;DHT22;11798;51.528;7.240;2023-04-24T01:29:14;9.90;99.90
23259;DHT22;11798;51.528;7.240;2023-04-24T01:31:40;9.90;99.90
23259;DHT22;11798;51.528;7.240;2023-04-24T01:34:05;9.90;99.90
23259;DHT22;11798;51.528;7.240;2023-04-24T01:36:32;9.80;99.90
23259;DHT22;11798;51.528;7.240;2023-04-24T01:38:58;9.80;99.90
23259;DHT22;11798;51.528;7.240;2023-04-24T01:41:24;9.80;99.90
23259;DHT22;11798;51.528;7.240;2023-04-24T01:43:50;9.80;99.90
23259;DHT22;11798;51.528;7.240;2023-04-24T01:46:16;9.80;99.90
23259;DHT22;11798;51.528;7.240;2023-04-24T01:48:42;9.80;99.90
23259;DHT22;11798;51.528;7.240;2023-04-24T01:51:07;9.80;99.90
23259;DHT22;11798;51.528;7.240;2023-04-24T01:53:33;9.80;99.90
23259;DHT22;11798;51.528;7.240;2023-04-24T01:55:58;9.70;99.90
23259;DHT22;11798;51.528;7.240;2023-04-24T01:58:24;9.70;99.90
23259;DHT22;11798;51.528;7.240;2023-04-24T02:00:50;9.60;99.90
23259;DHT22;11798;51.528;7.240;2023-04-24T02:03:15;9.60;99.90
23259;DHT22;11798;51.528;7.240;2023-04-24T02:05:44;9.50;99.90
23259;DHT22;11798;51.528;7.240;2023-04-24T02:08:10;9.40;99.90
23259;DHT22;11798;51.528;7.240;2023-04-24T02:10:36;9.40;99.90
23259;DHT22;11798;51.528;7.240;2023-04-24T02:13:01;9.40;99.90
23259;DHT22;11798;51.528;7.240;2023-04-24T02:15:27;9.40;99.90
23259;DHT22;11798;51.528;7.240;2023-04-24T02:17:53;9.40;99.90
23259;DHT22;11798;51.528;7.240;2023-04-24T02:20:19;9.30;99.90
23259;DHT22;11798;51.528;7.240;2023-04-24T02:22:44;9.30;99.90
23259;DHT22;11798;51.528;7.240;2023-04-24T02:25:10;9.20;99.90
23259;DHT22;11798;51.528;7.240;2023-04-24T02:27:36;9.20;99.90
23259;DHT22;11798;51.528;7.240;2023-04-24T02:30:01;9.20;99.90
23259;DHT22;11798;51.528;7.240;2023-04-24T02:32:28;9.20;99.90
23259;DHT22;11798;51.528;7.240;2023-04-24T02:34:54;9.10;99.90
23259;DHT22;11798;51.528;7.240;2023-04-24T02:37:19;9.10;99.90
23259;DHT22;11798;51.528;7.240;2023-04-24T02:39:45;9.10;99.90
23259;DHT22;11798;51.528;7.240;2023-04-24T02:42:10;9.10;99.90
23259;DHT22;11798;51.528;7.240;2023-04-24T02:44:36;9.00;99.90
23259;DHT22;11798;51.528;7.240;2023-04-24T02:47:02;9.10;99.90
23259;DHT22;11798;51.528;7.240;2023-04-24T02:49:27;9.10;99.90
23259;DHT22;11798;51.528;7.240;2023-04-24T02:51:53;9.00;99.90
23259;DHT22;11798;51.528;7.240;2023-04-24T02:54:18;9.00;99.90
23259;DHT22;11798;51.528;7.240;2023-04-24T02:56:44;9.00;99.90
23259;DHT22;11798;51.528;7.240;2023-04-24T02:59:10;9.00;99.90
23259;DHT22;11798;51.528;7.240;2023-04-24T03:01:35;9.00;99.90
23259;DHT22;11798;51.528;7.240;2023-04-24T03:04:01;9.00;99.90
23259;DHT22;11798;51.528;7.240;2023-04-24T03:06:27;9.10;99.90
23259;DHT22;11798;51.528;7.240;2023-04-24T03:08:53;9.00;99.90
23259;DHT22;11798;51.528;7.240;2023-04-24T03:11:19;9.10;99.90
23259;DHT22;11798;51.528;7.240;2023-04-24T03:13:45;9.10;99.90
23259;DHT22;11798;51.528;7.240;2023-04-24T03:16:11;9.20;99.90
23259;DHT22;11798;51.528;7.240;2023-04-24T03:18:36;9.20;99.90
23259;DHT22;11798;51.528;7.240;2023-04-24T03:21:02;9.20;99.90
23259;DHT22;11798;51.528;7.240;2023-04-24T03:23:28;9.20;99.90
23259;DHT22;11798;51.528;7.240;2023-04-24T03:25:54;9.20;99.90
23259;DHT22;11798;51.528;7.240;2023-04-24T03:28:20;9.30;99.90
23259;DHT22;11798;51.528;7.240;2023-04-24T03:30:46;9.30;99.90
23259;DHT22;11798;51.528;7.240;2023-04-24T03:33:11;9.30;99.90
23259;DHT22;11798;51.528;7.240;2023-04-24T03:35:37;9.30;99.90
23259;DHT22;11798;51.528;7.240;2023-04-24T03:38:02;9.30;99.90
23259;DHT22;11798;51.528;7.240;2023-04-24T03:40:30;9.30;99.90
23259;DHT22;11798;51.528;7.240;2023-04-24T03:42:55;9.30;99.90
23259;DHT22;11798;51.528;7.240;2023-04-24T03:45:21;9.40;99.90
23259;DHT22;11798;51.528;7.240;2023-04-24T03:47:47;9.40;99.90
23259;DHT22;11798;51.528;7.240;2023-04-24T03:50:12;9.40;99.90
23259;DHT22;11798;51.528;7.240;2023-04-24T03:52:38;9.40;99.90
23259;DHT22;11798;51.528;7.240;2023-04-24T03:55:03;9.40;99.90
23259;DHT22;11798;51.528;7.240;2023-04-24T03:57:29;9.40;99.90
23259;DHT22;11798;51.528;7.240;2023-04-24T03:59:55;9.40;99.90
23259;DHT22;11798;51.528;7.240;2023-04-24T04:02:21;9.40;99.90
23259;DHT22;11798;51.528;7.240;2023-04-24T04:04:46;9.40;99.90
23259;DHT22;11798;51.528;7.240;2023-04-24T04:07:12;9.40;99.90
23259;DHT22;11798;51.528;7.240;2023-04-24T04:09:38;9.40;99.90
23259;DHT22;11798;51.528;7.240;2023-04-24T04:12:03;9.30;99.90
23259;DHT22;11798;51.528;7.240;2023-04-24T04:14:29;9.40;99.90
23259;DHT22;11798;51.528;7.240;2023-04-24T04:16:55;9.30;99.90
23259;DHT22;11798;51.528;7.240;2023-04-24T04:19:20;9.40;99.90
23259;DHT22;11798;51.528;7.240;2023-04-24T04:21:46;9.40;99.90
23259;DHT22;11798;51.528;7.240;2023-04-24T04:24:16;9.40;99.90
23259;DHT22;11798;51.528;7.240;2023-04-24T04:26:41;9.40;99.90
23259;DHT22;11798;51.528;7.240;2023-04-24T04:29:13;9.40;99.90
23259;DHT22;11798;51.528;7.240;2023-04-24T04:31:38;9.50;99.90
23259;DHT22;11798;51.528;7.240;2023-04-24T04:34:04;9.40;99.90
23259;DHT22;11798;51.528;7.240;2023-04-24T04:36:29;9.50;99.90
23259;DHT22;11798;51.528;7.240;2023-04-24T04:38:55;9.50;99.90
23259;DHT22;11798;51.528;7.240;2023-04-24T04:41:22;9.50;99.90
23259;DHT22;11798;51.528;7.240;2023-04-24T04:43:48;9.40;99.90
23259;DHT22;11798;51.528;7.240;2023-04-24T04:46:13;9.40;99.90
23259;DHT22;11798;51.528;7.240;2023-04-24T04:48:39;9.40;99.90
23259;DHT22;11798;51.528;7.240;2023-04-24T04:51:05;9.50;99.90
23259;DHT22;11798;51.528;7.240;2023-04-24T04:53:31;9.50;99.90
23259;DHT22;11798;51.528;7.240;2023-04-24T04:55:57;9.50;99.90
23259;DHT22;11798;51.528;7.240;2023-04-24T04:58:23;9.50;99.90
23259;DHT22;11798;51.528;7.240;2023-04-24T05:00:48;9.50;99.90
23259;DHT22;11798;51.528;7.240;2023-04-24T05:03:14;9.50;99.90
23259;DHT22;11798;51.528;7.240;2023-04-24T05:05:41;9.50;99.90
23259;DHT22;11798;51.528;7.240;2023-04-24T05:08:07;9.40;99.90
23259;DHT22;11798;51.528;7.240;2023-04-24T05:10:34;9.50;99.90
23259;DHT22;11798;51.528;7.240;2023-04-24T05:13:00;9.50;99.90
23259;DHT22;11798;51.528;7.240;2023-04-24T05:15:26;9.60;99.90
23259;DHT22;11798;51.528;7.240;2023-04-24T05:17:51;9.60;99.90
23259;DHT22;11798;51.528;7.240;2023-04-24T05:20:17;9.50;99.90
23259;DHT22;11798;51.528;7.240;2023-04-24T05:22:43;9.60;99.90
23259;DHT22;11798;51.528;7.240;2023-04-24T05:25:08;9.60;99.90
23259;DHT22;11798;51.528;7.240;2023-04-24T05:27:34;9.60;99.90
23259;DHT22;11798;51.528;7.240;2023-04-24T05:30:00;9.60;99.90
23259;DHT22;11798;51.528;7.240;2023-04-24T05:32:26;9.60;99.90
23259;DHT22;11798;51.528;7.240;2023-04-24T05:34:52;9.60;99.90
23259;DHT22;11798;51.528;7.240;2023-04-24T05:37:18;9.60;99.90
23259;DHT22;11798;51.528;7.240;2023-04-24T05:39:43;9.50;99.90
23259;DHT22;11798;51.528;7.240;2023-04-24T05:42:09;9.50;99.90
23259;DHT22;11798;51.528;7.240;2023-04-24T05:44:34;9.50;99.90
23259;DHT22;11798;51.528;7.240;2023-04-24T05:47:00;9.50;99.90
23259;DHT22;11798;51.528;7.240;2023-04-24T05:49:26;9.40;99.90
23259;DHT22;11798;51.528;7.240;2023-04-24T05:51:51;9.40;99.90
23259;DHT22;11798;51.528;7.240;2023-04-24T05:54:17;9.40;99.90
23259;DHT22;11798;51.528;7.240;2023-04-24T05:56:43;9.40;99.90
23259;DHT22;11798;51.528;7.240;2023-04-24T05:59:08;9.30;99.90
23259;DHT22;11798;51.528;7.240;2023-04-24T06:01:34;9.30;99.90
23259;DHT22;11798;51.528;7.240;2023-04-24T06:04:02;9.30;99.90
23259;DHT22;11798;51.528;7.240;2023-04-24T06:06:28;9.20;99.90
23259;DHT22;11798;51.528;7.240;2023-04-24T06:08:54;9.20;99.90
23259;DHT22;11798;51.528;7.240;2023-04-24T06:11:20;9.20;99.90
23259;DHT22;11798;51.528;7.240;2023-04-24T06:13:45;9.20;99.90
23259;DHT22;11798;51.528;7.240;2023-04-24T06:16:11;9.20;99.90
23259;DHT22;11798;51.528;7.240;2023-04-24T06:18:36;9.20;99.90
23259;DHT22;11798;51.528;7.240;2023-04-24T06:21:02;9.10;99.90
23259;DHT22;11798;51.528;7.240;2023-04-24T06:23:28;9.10;99.90
23259;DHT22;11798;51.528;7.240;2023-04-24T06:25:53;9.10;99.90
23259;DHT22;11798;51.528;7.240;2023-04-24T06:28:19;9.10;99.90
23259;DHT22;11798;51.528;7.240;2023-04-24T06:30:44;9.10;99.90
23259;DHT22;11798;51.528;7.240;2023-04-24T06:33:10;9.10;99.90
23259;DHT22;11798;51.528;7.240;2023-04-24T06:35:36;9.20;99.90
23259;DHT22;11798;51.528;7.240;2023-04-24T06:38:03;9.10;99.90
23259;DHT22;11798;51.528;7.240;2023-04-24T06:40:29;9.10;99.90
23259;DHT22;11798;51.528;7.240;2023-04-24T06:42:54;9.20;99.90
23259;DHT22;11798;51.528;7.240;2023-04-24T06:45:20;9.10;99.90
23259;DHT22;11798;51.528;7.240;2023-04-24T06:47:46;9.10;99.90
23259;DHT22;11798;51.528;7.240;2023-04-24T06:50:12;9.20;99.90
23259;DHT22;11798;51.528;7.240;2023-04-24T06:52:37;9.20;99.90
23259;DHT22;11798;51.528;7.240;2023-04-24T06:55:04;9.30;99.90
23259;DHT22;11798;51.528;7.240;2023-04-24T06:57:30;9.30;99.90
23259;DHT22;11798;51.528;7.240;2023-04-24T06:59:55;9.40;99.90
23259;DHT22;11798;51.528;7.240;2023-04-24T07:02:21;9.50;99.90
23259;DHT22;11798;51.528;7.240;2023-04-24T07:04:47;9.50;99.90
23259;DHT22;11798;51.528;7.240;2023-04-24T07:07:13;9.50;99.90
23259;DHT22;11798;51.528;7.240;2023-04-24T07:09:40;9.40;99.90
23259;DHT22;11798;51.528;7.240;2023-04-24T07:12:08;9.40;99.90
23259;DHT22;11798;51.528;7.240;2023-04-24T07:14:33;9.40;99.90
23259;DHT22;11798;51.528;7.240;2023-04-24T07:16:59;9.30;99.90
23259;DHT22;11798;51.528;7.240;2023-04-24T07:19:24;9.30;99.90
23259;DHT22;11798;51.528;7.240;2023-04-24T07:21:50;9.30;99.90
23259;DHT22;11798;51.528;7.240;2023-04-24T07:24:16;9.40;99.90
23259;DHT22;11798;51.528;7.240;2023-04-24T07:26:41;9.30;99.90
23259;DHT22;11798;51.528;7.240;2023-04-24T07:29:07;9.20;99.90
23259;DHT22;11798;51.528;7.240;2023-04-24T07:31:33;9.10;99.90
23259;DHT22;11798;51.528;7.240;2023-04-24T07:33:59;9.20;99.90
23259;DHT22;11798;51.528;7.240;2023-04-24T07:36:24;9.30;99.90
23259;DHT22;11798;51.528;7.240;2023-04-24T07:38:51;9.20;99.90
23259;DHT22;11798;51.528;7.240;2023-04-24T07:41:17;9.30;99.90
23259;DHT22;11798;51.528;7.240;2023-04-24T07:43:44;9.20;99.90
23259;DHT22;11798;51.528;7.240;2023-04-24T07:46:09;9.20;99.90
23259;DHT22;11798;51.528;7.240;2023-04-24T07:48:35;9.20;99.90
23259;DHT22;11798;51.528;7.240;2023-04-24T07:51:01;9.20;99.90
23259;DHT22;11798;51.528;7.240;2023-04-24T07:53:27;9.10;99.90
23259;DHT22;11798;51.528;7.240;2023-04-24T07:55:54;9.10;99.90
23259;DHT22;11798;51.528;7.240;2023-04-24T07:58:20;9.20;99.90
23259;DHT22;11798;51.528;7.240;2023-04-24T08:00:46;9.10;99.90
23259;DHT22;11798;51.528;7.240;2023-04-24T08:03:12;9.10;99.90
23259;DHT22;11798;51.528;7.240;2023-04-24T08:05:38;9.10;99.90
23259;DHT22;11798;51.528;7.240;2023-04-24T08:08:04;9.10;99.90
23259;DHT22;11798;51.528;7.240;2023-04-24T08:10:30;9.10;99.90
23259;DHT22;11798;51.528;7.240;2023-04-24T08:12:55;9.30;99.90
23259;DHT22;11798;51.528;7.240;2023-04-24T08:15:21;9.30;99.90
23259;DHT22;11798;51.528;7.240;2023-04-24T08:17:47;9.30;99.90
23259;DHT22;11798;51.528;7.240;2023-04-24T08:20:12;9.20;99.90
23259;DHT22;11798;51.528;7.240;2023-04-24T08:22:41;9.20;99.90
23259;DHT22;11798;51.528;7.240;2023-04-24T08:25:08;9.10;99.90
23259;DHT22;11798;51.528;7.240;2023-04-24T08:27:34;9.10;99.90
23259;DHT22;11798;51.528;7.240;2023-04-24T08:29:59;9.00;99.90
23259;DHT22;11798;51.528;7.240;2023-04-24T08:32:26;9.00;99.90
23259;DHT22;11798;51.528;7.240;2023-04-24T08:34:55;8.90;99.90
23259;DHT22;11798;51.528;7.240;2023-04-24T08:37:22;8.90;99.90
23259;DHT22;11798;51.528;7.240;2023-04-24T08:39:48;8.90;99.90
23259;DHT22;11798;51.528;7.240;2023-04-24T08:42:16;8.80;99.90
23259;DHT22;11798;51.528;7.240;2023-04-24T08:44:42;8.80;99.90
23259;DHT22;11798;51.528;7.240;2023-04-24T08:47:08;9.00;99.90
23259;DHT22;11798;51.528;7.240;2023-04-24T08:49:36;8.90;99.90
23259;DHT22;11798;51.528;7.240;2023-04-24T08:52:02;8.90;99.90
23259;DHT22;11798;51.528;7.240;2023-04-24T08:54:28;8.90;99.90
23259;DHT22;11798;51.528;7.240;2023-04-24T08:57:00;8.90;99.90
23259;DHT22;11798;51.528;7.240;2023-04-24T08:59:27;8.90;99.90
23259;DHT22;11798;51.528;7.240;2023-04-24T09:01:55;8.80;99.90
23259;DHT22;11798;51.528;7.240;2023-04-24T09:04:22;8.70;99.90
23259;DHT22;11798;51.528;7.240;2023-04-24T09:06:50;8.70;99.90
23259;DHT22;11798;51.528;7.240;2023-04-24T09:09:17;8.60;99.90
23259;DHT22;11798;51.528;7.240;2023-04-24T09:11:44;8.70;99.90
23259;DHT22;11798;51.528;7.240;2023-04-24T09:14:10;8.70;99.90
23259;DHT22;11798;51.528;7.240;2023-04-24T09:16:36;8.70;99.90
23259;DHT22;11798;51.528;7.240;2023-04-24T09:19:02;8.70;99.90
23259;DHT22;11798;51.528;7.240;2023-04-24T09:21:32;8.60;99.90
23259;DHT22;11798;51.528;7.240;2023-04-24T09:24:04;8.60;99.90
23259;DHT22;11798;51.528;7.240;2023-04-24T09:26:31;8.70;99.90
23259;DHT22;11798;51.528;7.240;2023-04-24T09:28:58;8.70;99.90
23259;DHT22;11798;51.528;7.240;2023-04-24T09:31:27;8.70;99.90
23259;DHT22;11798;51.528;7.240;2023-04-24T09:34:01;8.70;99.90
23259;DHT22;11798;51.528;7.240;2023-04-24T09:36:40;8.90;99.90
23259;DHT22;11798;51.528;7.240;2023-04-24T09:39:08;8.90;99.90
23259;DHT22;11798;51.528;7.240;2023-04-24T09:41:47;9.00;99.90
23259;DHT22;11798;51.528;7.240;2023-04-24T09:46:41;9.00;99.90
23259;DHT22;11798;51.528;7.240;2023-04-24T09:49:21;9.00;99.90
23259;DHT22;11798;51.528;7.240;2023-04-24T09:51:46;9.00;99.90
23259;DHT22;11798;51.528;7.240;2023-04-24T09:54:17;9.00;99.90
23259;DHT22;11798;51.528;7.240;2023-04-24T09:56:44;9.00;99.90
23259;DHT22;11798;51.528;7.240;2023-04-24T09:59:11;8.80;99.90
23259;DHT22;11798;51.528;7.240;2023-04-24T10:01:36;8.70;99.90
23259;DHT22;11798;51.528;7.240;2023-04-24T10:04:03;8.70;99.90
23259;DHT22;11798;51.528;7.240;2023-04-24T10:06:35;8.50;99.90
23259;DHT22;11798;51.528;7.240;2023-04-24T10:09:02;8.60;99.90
23259;DHT22;11798;51.528;7.240;2023-04-24T10:11:29;8.60;99.90
23259;DHT22;11798;51.528;7.240;2023-04-24T10:13:56;8.60;99.90
23259;DHT22;11798;51.528;7.240;2023-04-24T10:16:23;8.70;99.90
23259;DHT22;11798;51.528;7.240;2023-04-24T10:18:49;8.60;99.90
23259;DHT22;11798;51.528;7.240;2023-04-24T10:21:16;8.60;99.90
23259;DHT22;11798;51.528;7.240;2023-04-24T10:23:42;8.50;99.90
23259;DHT22;11798;51.528;7.240;2023-04-24T10:26:13;8.40;99.90
23259;DHT22;11798;51.528;7.240;2023-04-24T10:28:45;8.40;99.90
23259;DHT22;11798;51.528;7.240;2023-04-24T10:31:12;8.50;99.90
23259;DHT22;11798;51.528;7.240;2023-04-24T10:33:40;8.40;99.90
23259;DHT22;11798;51.528;7.240;2023-04-24T10:36:08;8.50;99.90
23259;DHT22;11798;51.528;7.240;2023-04-24T10:38:35;8.50;99.90
23259;DHT22;11798;51.528;7.240;2023-04-24T10:41:12;8.60;99.90
23259;DHT22;11798;51.528;7.240;2023-04-24T10:44:03;8.80;99.90
23259;DHT22;11798;51.528;7.240;2023-04-24T10:46:30;8.70;99.90
23259;DHT22;11798;51.528;7.240;2023-04-24T10:48:55;8.70;99.90
23259;DHT22;11798;51.528;7.240;2023-04-24T10:51:23;8.70;99.90
23259;DHT22;11798;51.528;7.240;2023-04-24T10:53:51;8.80;99.90
23259;DHT22;11798;51.528;7.240;2023-04-24T10:56:17;8.80;99.90
23259;DHT22;11798;51.528;7.240;2023-04-24T10:58:51;8.70;99.90
23259;DHT22;11798;51.528;7.240;2023-04-24T11:01:28;8.60;99.90
23259;DHT22;11798;51.528;7.240;2023-04-24T11:03:59;8.60;99.90
23259;DHT22;11798;51.528;7.240;2023-04-24T11:06:45;8.60;99.90
23259;DHT22;11798;51.528;7.240;2023-04-24T11:09:15;8.60;99.90
23259;DHT22;11798;51.528;7.240;2023-04-24T11:11:45;8.60;99.90
23259;DHT22;11798;51.528;7.240;2023-04-24T11:14:14;8.60;99.90
23259;DHT22;11798;51.528;7.240;2023-04-24T11:16:54;8.60;99.90
23259;DHT22;11798;51.528;7.240;2023-04-24T11:19:25;8.60;99.90
23259;DHT22;11798;51.528;7.240;2023-04-24T11:24:28;8.80;99.90
23259;DHT22;11798;51.528;7.240;2023-04-24T11:26:59;8.70;99.90
23259;DHT22;11798;51.528;7.240;2023-04-24T11:32:25;8.70;99.90
23259;DHT22;11798;51.528;7.240;2023-04-24T11:34:59;8.70;99.90
23259;DHT22;11798;51.528;7.240;2023-04-24T11:37:28;8.80;99.90
23259;DHT22;11798;51.528;7.240;2023-04-24T11:39:57;9.00;99.90
23259;DHT22;11798;51.528;7.240;2023-04-24T11:42:23;9.10;99.90
23259;DHT22;11798;51.528;7.240;2023-04-24T11:44:50;9.30;99.90
23259;DHT22;11798;51.528;7.240;2023-04-24T11:47:17;9.40;99.90
23259;DHT22;11798;51.528;7.240;2023-04-24T11:49:42;9.50;99.90
23259;DHT22;11798;51.528;7.240;2023-04-24T11:52:08;9.40;99.90
23259;DHT22;11798;51.528;7.240;2023-04-24T11:54:34;9.30;99.90
23259;DHT22;11798;51.528;7.240;2023-04-24T11:57:04;9.40;99.90
23259;DHT22;11798;51.528;7.240;2023-04-24T11:59:35;9.50;99.90
23259;DHT22;11798;51.528;7.240;2023-04-24T12:02:02;9.50;99.90
23259;DHT22;11798;51.528;7.240;2023-04-24T12:04:40;9.40;99.90
23259;DHT22;11798;51.528;7.240;2023-04-24T12:07:06;9.30;99.90
23259;DHT22;11798;51.528;7.240;2023-04-24T12:09:55;9.10;99.90
23259;DHT22;11798;51.528;7.240;2023-04-24T12:12:24;9.00;99.90
23259;DHT22;11798;51.528;7.240;2023-04-24T12:14:56;9.20;99.90
23259;DHT22;11798;51.528;7.240;2023-04-24T12:17:30;9.40;99.90
23259;DHT22;11798;51.528;7.240;2023-04-24T12:20:06;9.50;99.90
23259;DHT22;11798;51.528;7.240;2023-04-24T12:22:46;9.60;99.90
23259;DHT22;11798;51.528;7.240;2023-04-24T12:25:12;9.70;99.90
23259;DHT22;11798;51.528;7.240;2023-04-24T12:27:38;9.90;99.90
23259;DHT22;11798;51.528;7.240;2023-04-24T12:30:05;9.90;99.90
23259;DHT22;11798;51.528;7.240;2023-04-24T12:32:31;9.90;99.90
23259;DHT22;11798;51.528;7.240;2023-04-24T12:34:57;9.90;99.90
23259;DHT22;11798;51.528;7.240;2023-04-24T12:37:32;9.80;99.90
23259;DHT22;11798;51.528;7.240;2023-04-24T12:39:59;9.70;99.90
23259;DHT22;11798;51.528;7.240;2023-04-24T12:42:27;9.70;99.90
23259;DHT22;11798;51.528;7.240;2023-04-24T12:44:57;9.60;99.90
23259;DHT22;11798;51.528;7.240;2023-04-24T12:47:24;9.50;99.90
23259;DHT22;11798;51.528;7.240;2023-04-24T12:49:50;9.40;99.90
23259;DHT22;11798;51.528;7.240;2023-04-24T12:52:18;9.40;99.90
23259;DHT22;11798;51.528;7.240;2023-04-24T12:54:45;9.40;99.90
23259;DHT22;11798;51.528;7.240;2023-04-24T12:57:11;9.40;99.90
23259;DHT22;11798;51.528;7.240;2023-04-24T12:59:36;9.40;99.90
23259;DHT22;11798;51.528;7.240;2023-04-24T13:02:02;9.40;99.90
23259;DHT22;11798;51.528;7.240;2023-04-24T13:04:28;9.70;99.90
23259;DHT22;11798;51.528;7.240;2023-04-24T13:06:53;10.00;99.90
23259;DHT22;11798;51.528;7.240;2023-04-24T13:09:19;10.00;99.90
23259;DHT22;11798;51.528;7.240;2023-04-24T13:11:45;10.00;99.90
23259;DHT22;11798;51.528;7.240;2023-04-24T13:14:10;9.80;99.90
23259;DHT22;11798;51.528;7.240;2023-04-24T13:16:36;9.80;99.90
23259;DHT22;11798;51.528;7.240;2023-04-24T13:19:01;9.80;99.90
23259;DHT22;11798;51.528;7.240;2023-04-24T13:21:27;9.70;99.90
23259;DHT22;11798;51.528;7.240;2023-04-24T13:23:52;9.70;99.90
23259;DHT22;11798;51.528;7.240;2023-04-24T13:26:18;9.70;99.90
23259;DHT22;11798;51.528;7.240;2023-04-24T13:28:44;9.70;99.90
23259;DHT22;11798;51.528;7.240;2023-04-24T13:31:10;9.60;99.90
23259;DHT22;11798;51.528;7.240;2023-04-24T13:33:35;9.70;99.90
23259;DHT22;11798;51.528;7.240;2023-04-24T13:36:01;9.70;99.90
23259;DHT22;11798;51.528;7.240;2023-04-24T13:38:26;9.70;99.90
23259;DHT22;11798;51.528;7.240;2023-04-24T13:40:52;9.70;99.90
23259;DHT22;11798;51.528;7.240;2023-04-24T13:43:17;9.70;99.90
23259;DHT22;11798;51.528;7.240;2023-04-24T13:45:43;9.70;99.90
23259;DHT22;11798;51.528;7.240;2023-04-24T13:48:09;9.70;99.90
23259;DHT22;11798;51.528;7.240;2023-04-24T13:50:34;9.70;99.90
23259;DHT22;11798;51.528;7.240;2023-04-24T13:53:00;9.60;99.90
23259;DHT22;11798;51.528;7.240;2023-04-24T13:55:26;9.60;99.90
23259;DHT22;11798;51.528;7.240;2023-04-24T13:57:52;9.70;99.90
23259;DHT22;11798;51.528;7.240;2023-04-24T14:00:20;9.70;99.90
23259;DHT22;11798;51.528;7.240;2023-04-24T14:02:46;9.70;99.90
23259;DHT22;11798;51.528;7.240;2023-04-24T14:05:13;9.70;99.90
23259;DHT22;11798;51.528;7.240;2023-04-24T14:07:41;9.70;99.90
23259;DHT22;11798;51.528;7.240;2023-04-24T14:10:07;9.90;99.90
23259;DHT22;11798;51.528;7.240;2023-04-24T14:12:33;10.00;99.90
23259;DHT22;11798;51.528;7.240;2023-04-24T14:14:58;10.10;99.90
23259;DHT22;11798;51.528;7.240;2023-04-24T14:17:24;10.10;99.90
23259;DHT22;11798;51.528;7.240;2023-04-24T14:19:50;10.20;99.90
23259;DHT22;11798;51.528;7.240;2023-04-24T14:22:17;10.30;99.90
23259;DHT22;11798;51.528;7.240;2023-04-24T14:24:43;10.50;99.90
23259;DHT22;11798;51.528;7.240;2023-04-24T14:27:08;10.60;99.90
23259;DHT22;11798;51.528;7.240;2023-04-24T14:29:34;10.50;99.90
23259;DHT22;11798;51.528;7.240;2023-04-24T14:31:59;10.40;99.90
23259;DHT22;11798;51.528;7.240;2023-04-24T14:34:25;10.30;99.90
23259;DHT22;11798;51.528;7.240;2023-04-24T14:36:52;10.30;99.90
23259;DHT22;11798;51.528;7.240;2023-04-24T14:39:18;10.20;99.90
23259;DHT22;11798;51.528;7.240;2023-04-24T14:41:43;10.10;99.90
23259;DHT22;11798;51.528;7.240;2023-04-24T14:44:09;10.00;99.90
23259;DHT22;11798;51.528;7.240;2023-04-24T14:46:34;9.90;99.90
23259;DHT22;11798;51.528;7.240;2023-04-24T14:49:00;9.80;99.90
23259;DHT22;11798;51.528;7.240;2023-04-24T14:51:26;9.90;99.90
23259;DHT22;11798;51.528;7.240;2023-04-24T14:53:52;9.80;99.90
23259;DHT22;11798;51.528;7.240;2023-04-24T14:56:17;9.80;99.90
23259;DHT22;11798;51.528;7.240;2023-04-24T14:58:43;9.70;99.90
23259;DHT22;11798;51.528;7.240;2023-04-24T15:01:09;9.70;99.90
23259;DHT22;11798;51.528;7.240;2023-04-24T15:03:34;9.60;99.90
23259;DHT22;11798;51.528;7.240;2023-04-24T15:06:00;9.60;99.90
23259;DHT22;11798;51.528;7.240;2023-04-24T15:08:26;9.50;99.90
23259;DHT22;11798;51.528;7.240;2023-04-24T15:10:51;9.60;99.90
23259;DHT22;11798;51.528;7.240;2023-04-24T15:13:17;9.40;99.90
23259;DHT22;11798;51.528;7.240;2023-04-24T15:15:43;9.60;99.90
23259;DHT22;11798;51.528;7.240;2023-04-24T15:18:09;9.60;99.90
23259;DHT22;11798;51.528;7.240;2023-04-24T15:20:37;9.60;99.90
23259;DHT22;11798;51.528;7.240;2023-04-24T15:23:08;9.80;99.90
23259;DHT22;11798;51.528;7.240;2023-04-24T15:25:33;10.40;99.90
23259;DHT22;11798;51.528;7.240;2023-04-24T15:27:59;10.80;99.90
23259;DHT22;11798;51.528;7.240;2023-04-24T15:30:26;10.90;99.90
23259;DHT22;11798;51.528;7.240;2023-04-24T15:32:52;11.00;99.90
23259;DHT22;11798;51.528;7.240;2023-04-24T15:35:17;10.70;99.90
23259;DHT22;11798;51.528;7.240;2023-04-24T15:37:43;10.70;99.90
23259;DHT22;11798;51.528;7.240;2023-04-24T15:40:10;10.80;99.90
23259;DHT22;11798;51.528;7.240;2023-04-24T15:42:38;10.70;99.90
23259;DHT22;11798;51.528;7.240;2023-04-24T15:45:04;10.60;99.90
23259;DHT22;11798;51.528;7.240;2023-04-24T15:47:32;10.40;99.90